createdAt,value
2022-09-07T00:02:22.439Z,67.10
2022-09-07T00:04:49.196Z,67.60
2022-09-07T00:07:15.931Z,67.80
2022-09-07T00:09:42.671Z,67.80
2022-09-07T00:12:09.925Z,68.00
2022-09-07T00:14:36.731Z,68.10
2022-09-07T00:17:03.529Z,68.10
2022-09-07T00:19:30.332Z,68.50
2022-09-07T00:21:57.031Z,68.70
2022-09-07T00:24:23.916Z,68.70
2022-09-07T00:26:50.627Z,68.50
2022-09-07T00:29:17.333Z,68.50
2022-09-07T00:31:44.161Z,68.50
2022-09-07T00:34:11.152Z,68.60
2022-09-07T00:36:37.895Z,68.40
2022-09-07T00:39:05.887Z,68.60
2022-09-07T00:41:32.951Z,68.60
2022-09-07T00:44:38.157Z,68.60
2022-09-07T00:47:16.040Z,69.00
2022-09-07T00:49:45.750Z,68.60
2022-09-07T00:52:13.404Z,68.50
2022-09-07T00:54:45.155Z,68.50
2022-09-07T00:57:12.488Z,68.30
2022-09-07T00:59:45.721Z,68.40
2022-09-07T01:02:15.787Z,68.40
2022-09-07T01:04:43.731Z,68.60
2022-09-07T01:07:10.692Z,68.70
2022-09-07T01:09:38.344Z,69.60
2022-09-07T01:12:05.747Z,69.10
2022-09-07T01:14:41.033Z,69.20
2022-09-07T01:17:38.452Z,69.50
2022-09-07T01:20:42.795Z,69.50
2022-09-07T01:23:27.609Z,68.90
2022-09-07T01:26:18.408Z,68.70
2022-09-07T01:28:49.513Z,68.50
2022-09-07T01:31:25.397Z,68.30
2022-09-07T01:34:20.439Z,68.30
2022-09-07T01:37:14.439Z,68.40
2022-09-07T01:39:51.497Z,68.40
2022-09-07T01:42:23.624Z,68.00
2022-09-07T01:44:56.033Z,67.60
2022-09-07T01:47:39.985Z,67.20
2022-09-07T01:50:16.908Z,67.00
2022-09-07T01:53:01.208Z,66.50
2022-09-07T01:55:42.664Z,66.60
2022-09-07T01:58:19.271Z,66.80
2022-09-07T02:00:50.970Z,66.90
2022-09-07T02:03:30.884Z,66.90
2022-09-07T02:06:05.268Z,67.00
2022-09-07T02:08:55.574Z,67.10
2022-09-07T02:11:29.088Z,67.40
2022-09-07T02:14:01.414Z,67.40
2022-09-07T02:16:30.076Z,67.50
2022-09-07T02:19:02.751Z,67.60
2022-09-07T02:21:34.783Z,67.70
2022-09-07T02:24:07.233Z,67.70
2022-09-07T02:26:37.491Z,67.60
2022-09-07T02:29:04.438Z,67.50
2022-09-07T02:31:31.366Z,67.40
2022-09-07T02:33:58.296Z,67.50
2022-09-07T02:36:28.287Z,67.40
2022-09-07T02:38:55.009Z,67.30
2022-09-07T02:41:34.994Z,66.90
2022-09-07T02:44:04.561Z,66.60
2022-09-07T02:46:40.503Z,66.60
2022-09-07T02:49:24.443Z,66.70
2022-09-07T02:52:12.336Z,66.40
2022-09-07T02:54:46.131Z,66.50
2022-09-07T02:57:27.418Z,66.80
2022-09-07T03:00:07.225Z,66.90
2022-09-07T03:03:09.412Z,67.00
2022-09-07T03:05:41.769Z,67.10
2022-09-07T03:08:31.515Z,67.10
2022-09-07T03:10:59.181Z,67.00
2022-09-07T03:13:28.954Z,66.80
2022-09-07T03:15:56.813Z,66.90
2022-09-07T03:18:25.436Z,67.00
2022-09-07T03:20:52.631Z,66.90
2022-09-07T03:23:19.394Z,66.90
2022-09-07T03:25:47.623Z,67.00
2022-09-07T03:28:14.489Z,67.00
2022-09-07T03:30:47.123Z,66.90
2022-09-07T03:33:17.760Z,66.90
2022-09-07T03:35:45.519Z,66.80
2022-09-07T03:38:12.704Z,66.90
2022-09-07T03:40:39.620Z,66.70
2022-09-07T03:43:06.541Z,66.80
2022-09-07T03:45:33.713Z,66.70
2022-09-07T03:48:00.464Z,66.70
2022-09-07T03:50:27.248Z,66.60
2022-09-07T03:52:53.961Z,66.50
2022-09-07T03:55:21.432Z,66.30
2022-09-07T03:57:48.144Z,66.20
2022-09-07T04:00:15.003Z,66.20
2022-09-07T04:02:42.156Z,66.40
2022-09-07T04:05:09.363Z,66.40
2022-09-07T04:07:36.446Z,66.40
2022-09-07T04:10:04.136Z,66.40
2022-09-07T04:12:30.908Z,66.40
2022-09-07T04:14:57.639Z,66.50
2022-09-07T04:17:24.401Z,66.50
2022-09-07T04:19:51.115Z,66.50
2022-09-07T04:22:17.876Z,66.50
2022-09-07T04:24:44.590Z,66.30
2022-09-07T04:27:11.339Z,66.40
2022-09-07T04:29:38.272Z,66.40
2022-09-07T04:32:05.110Z,66.30
2022-09-07T04:34:31.903Z,66.30
2022-09-07T04:36:58.623Z,66.20
2022-09-07T04:39:25.546Z,66.30
2022-09-07T04:41:52.344Z,66.30
2022-09-07T04:44:19.269Z,66.40
2022-09-07T04:46:45.964Z,66.50
2022-09-07T04:49:12.740Z,66.50
2022-09-07T04:51:42.514Z,66.50
2022-09-07T04:54:10.131Z,66.50
2022-09-07T04:56:37.015Z,66.40
2022-09-07T04:59:04.300Z,66.20
2022-09-07T05:01:31.404Z,66.40
2022-09-07T05:04:01.223Z,66.40
2022-09-07T05:06:28.801Z,66.30
2022-09-07T05:08:55.692Z,66.40
2022-09-07T05:11:28.833Z,66.20
2022-09-07T05:13:58.131Z,66.10
2022-09-07T05:16:25.899Z,65.90
2022-09-07T05:18:54.996Z,66.10
2022-09-07T05:21:25.367Z,66.20
2022-09-07T05:23:53.901Z,66.20
2022-09-07T05:26:22.608Z,66.30
2022-09-07T05:28:50.393Z,66.10
2022-09-07T05:31:20.295Z,66.10
2022-09-07T05:36:39.206Z,66.10
2022-09-07T05:39:07.224Z,66.10
2022-09-07T05:41:33.953Z,66.10
2022-09-07T05:46:48.109Z,66.00
2022-09-07T05:49:14.847Z,65.70
2022-09-07T05:51:41.580Z,65.80
2022-09-07T05:54:08.448Z,66.00
2022-09-07T05:56:36.156Z,66.10
2022-09-07T05:59:03.643Z,66.10
2022-09-07T06:01:30.822Z,66.10
2022-09-07T06:03:57.841Z,66.00
2022-09-07T06:06:24.722Z,66.00
2022-09-07T06:08:53.402Z,66.10
2022-09-07T06:11:22.306Z,66.00
2022-09-07T06:13:49.858Z,66.00
2022-09-07T06:16:18.558Z,66.00
2022-09-07T06:18:48.143Z,66.00
2022-09-07T06:21:18.756Z,66.20
2022-09-07T06:23:46.928Z,66.30
2022-09-07T06:26:15.180Z,66.10
2022-09-07T06:28:49.716Z,65.90
2022-09-07T06:31:20.347Z,66.10
2022-09-07T06:33:48.081Z,66.10
2022-09-07T06:36:20.486Z,66.00
2022-09-07T06:38:47.965Z,66.10
2022-09-07T06:44:07.856Z,66.20
2022-09-07T06:49:21.447Z,66.30
2022-09-07T06:51:48.175Z,65.90
2022-09-07T06:57:08.485Z,66.20
2022-09-07T06:59:35.706Z,66.30
2022-09-07T07:02:02.492Z,66.40
2022-09-07T07:04:29.427Z,66.40
2022-09-07T07:06:56.169Z,66.20
2022-09-07T07:09:23.045Z,66.20
2022-09-07T07:11:49.776Z,66.10
2022-09-07T07:14:17.875Z,65.90
2022-09-07T07:16:45.676Z,66.00
2022-09-07T07:19:12.919Z,66.00
2022-09-07T07:22:05.575Z,66.10
2022-09-07T07:24:26.411Z,65.90
2022-09-07T07:26:53.171Z,65.80
2022-09-07T07:29:21.907Z,65.20
2022-09-07T07:31:49.528Z,64.50
2022-09-07T07:34:16.372Z,64.30
2022-09-07T07:36:43.181Z,64.70
2022-09-07T07:41:59.030Z,64.60
2022-09-07T07:44:28.651Z,64.90
2022-09-07T07:46:55.555Z,64.70
2022-09-07T07:49:22.368Z,65.10
2022-09-07T07:54:36.935Z,65.40
2022-09-07T07:57:05.246Z,64.40
2022-09-07T07:59:32.031Z,64.10
2022-09-07T08:02:04.412Z,64.20
2022-09-07T08:04:35.199Z,64.90
2022-09-07T08:07:08.687Z,65.30
2022-09-07T08:09:41.185Z,65.60
2022-09-07T08:12:09.703Z,65.60
2022-09-07T08:14:40.834Z,65.50
2022-09-07T08:17:09.904Z,64.30
2022-09-07T08:19:36.680Z,64.30
2022-09-07T08:22:03.954Z,64.90
2022-09-07T08:24:34.619Z,64.80
2022-09-07T08:27:01.956Z,64.30
2022-09-07T08:29:32.571Z,63.80
2022-09-07T08:32:01.888Z,64.10
2022-09-07T08:34:28.671Z,64.10
2022-09-07T08:36:55.398Z,63.90
2022-09-07T08:39:22.244Z,63.70
2022-09-07T08:42:01.422Z,64.40
2022-09-07T08:44:31.834Z,65.00
2022-09-07T08:47:40.279Z,66.50
2022-09-07T08:50:33.551Z,67.00
2022-09-07T08:53:19.549Z,67.60
2022-09-07T08:55:51.719Z,66.70
2022-09-07T08:58:49.732Z,66.20
2022-09-07T09:01:31.047Z,66.50
2022-09-07T09:07:15.884Z,66.70
2022-09-07T09:09:55.011Z,66.10
2022-09-07T09:12:37.510Z,66.80
2022-09-07T09:15:33.626Z,66.20
2022-09-07T09:18:17.279Z,66.00
2022-09-07T09:21:02.501Z,66.90
2022-09-07T09:23:37.973Z,66.80
2022-09-07T09:26:12.105Z,65.40
2022-09-07T09:28:39.782Z,63.40
2022-09-07T09:31:06.840Z,61.30
2022-09-07T09:33:33.589Z,62.30
2022-09-07T09:36:02.072Z,62.70
2022-09-07T09:38:40.287Z,61.00
2022-09-07T09:41:12.640Z,61.80
2022-09-07T09:43:45.667Z,61.30
2022-09-07T09:46:34.235Z,59.80
2022-09-07T09:49:06.645Z,59.70
2022-09-07T09:54:42.051Z,57.80
2022-09-07T09:57:16.434Z,58.30
2022-09-07T10:00:01.945Z,57.20
2022-09-07T10:05:40.742Z,57.20
2022-09-07T10:08:24.846Z,57.70
2022-09-07T10:10:52.601Z,56.30
2022-09-07T10:13:35.197Z,55.60
2022-09-07T10:16:09.591Z,56.00
2022-09-07T10:18:41.730Z,54.10
2022-09-07T10:21:26.793Z,52.00
2022-09-07T10:24:15.508Z,52.80
2022-09-07T10:26:47.220Z,52.80
2022-09-07T10:29:29.875Z,52.00
2022-09-07T10:32:09.437Z,51.70
2022-09-07T10:34:52.544Z,52.00
2022-09-07T10:37:27.128Z,51.70
2022-09-07T10:40:31.803Z,51.60
2022-09-07T10:43:21.550Z,50.70
2022-09-07T10:46:01.456Z,51.90
2022-09-07T10:48:45.672Z,51.50
2022-09-07T10:51:43.075Z,51.60
2022-09-07T10:54:36.464Z,50.70
2022-09-07T10:57:27.505Z,50.40
2022-09-07T11:00:21.582Z,51.80
2022-09-07T11:03:25.846Z,51.70
2022-09-07T11:06:08.349Z,50.10
2022-09-07T11:09:17.872Z,50.00
2022-09-07T11:12:04.719Z,50.60
2022-09-07T11:14:54.767Z,50.40
2022-09-07T11:17:26.015Z,47.60
2022-09-07T11:20:17.289Z,46.70
2022-09-07T11:22:49.668Z,47.30
2022-09-07T11:25:33.487Z,46.00
2022-09-07T11:28:13.451Z,44.70
2022-09-07T11:30:49.900Z,45.00
2022-09-07T11:33:25.416Z,44.70
2022-09-07T11:35:59.639Z,44.50
2022-09-07T11:43:28.198Z,43.20
2022-09-07T11:46:04.932Z,44.80
2022-09-07T11:48:39.967Z,46.10
2022-09-07T11:51:12.970Z,44.50
2022-09-07T11:53:45.605Z,46.40
2022-09-07T11:56:20.979Z,46.30
2022-09-07T11:59:11.735Z,48.40
2022-09-07T12:02:02.200Z,49.00
2022-09-07T12:04:54.142Z,46.60
2022-09-07T12:08:04.734Z,42.40
2022-09-07T12:10:55.327Z,43.90
2022-09-07T12:13:32.138Z,44.90
2022-09-07T12:16:19.692Z,42.60
2022-09-07T12:19:11.915Z,42.30
2022-09-07T12:21:53.719Z,42.90
2022-09-07T12:24:41.408Z,38.90
2022-09-07T12:27:20.305Z,39.80
2022-09-07T12:30:10.449Z,41.90
2022-09-07T12:32:54.930Z,39.60
2022-09-07T12:35:31.636Z,39.80
2022-09-07T12:38:05.879Z,40.00
2022-09-07T12:40:33.226Z,39.50
2022-09-07T12:43:15.224Z,37.30
2022-09-07T12:45:44.648Z,37.70
2022-09-07T12:48:17.501Z,37.50
2022-09-07T12:51:06.251Z,36.80
2022-09-07T12:53:48.372Z,35.90
2022-09-07T12:56:36.814Z,35.20
2022-09-07T12:59:38.302Z,36.30
2022-09-07T13:02:18.965Z,35.60
2022-09-07T13:04:52.838Z,35.90
2022-09-07T13:07:34.881Z,35.10
2022-09-07T13:10:04.315Z,34.60
2022-09-07T13:12:55.245Z,33.50
2022-09-07T13:15:41.099Z,32.40
2022-09-07T13:18:28.205Z,33.20
2022-09-07T13:21:07.004Z,33.80
2022-09-07T13:23:37.917Z,34.00
2022-09-07T13:26:09.038Z,35.40
2022-09-07T13:28:54.814Z,35.60
2022-09-07T13:31:30.914Z,35.40
2022-09-07T13:33:57.717Z,35.30
2022-09-07T13:36:40.172Z,36.60
2022-09-07T13:39:12.659Z,37.30
2022-09-07T13:41:49.212Z,38.20
2022-09-07T13:44:25.669Z,37.10
2022-09-07T13:47:11.405Z,36.60
2022-09-07T13:49:56.074Z,37.20
2022-09-07T13:52:38.648Z,37.20
2022-09-07T13:55:26.826Z,37.20
2022-09-07T13:58:17.842Z,37.40
2022-09-07T14:00:56.390Z,37.30
2022-09-07T14:03:27.735Z,37.20
2022-09-07T14:06:22.480Z,36.70
2022-09-07T14:08:52.670Z,36.20
2022-09-07T14:11:28.945Z,35.80
2022-09-07T14:14:29.386Z,36.10
2022-09-07T14:17:04.055Z,35.20
2022-09-07T14:19:38.036Z,36.50
2022-09-07T14:22:22.304Z,37.00
2022-09-07T14:24:57.808Z,38.10
2022-09-07T14:27:30.316Z,37.70
2022-09-07T14:30:24.051Z,37.40
2022-09-07T14:32:53.404Z,38.80
2022-09-07T14:35:22.954Z,36.60
2022-09-07T14:37:50.601Z,37.30
2022-09-07T14:40:25.458Z,37.60
2022-09-07T14:42:54.035Z,38.60
2022-09-07T14:45:23.594Z,38.00
2022-09-07T14:47:52.677Z,39.00
2022-09-07T14:50:21.780Z,39.10
2022-09-07T14:55:43.900Z,38.40
2022-09-07T14:58:13.611Z,38.90
2022-09-07T15:00:43.612Z,37.70
2022-09-07T15:03:28.444Z,38.30
2022-09-07T15:06:01.129Z,38.70
2022-09-07T15:08:40.461Z,39.20
2022-09-07T15:11:35.674Z,39.30
2022-09-07T15:14:08.784Z,38.10
2022-09-07T15:16:39.115Z,38.60
2022-09-07T15:19:18.515Z,39.20
2022-09-07T15:21:45.797Z,39.00
2022-09-07T15:24:12.491Z,39.00
2022-09-07T15:27:04.314Z,40.00
2022-09-07T15:29:32.141Z,39.00
2022-09-07T15:32:04.297Z,39.70
2022-09-07T15:34:32.372Z,40.80
2022-09-07T15:37:00.183Z,41.80
2022-09-07T15:39:34.383Z,39.90
2022-09-07T15:42:59.483Z,39.70
2022-09-07T15:44:50.223Z,39.30
2022-09-07T15:50:05.964Z,39.00
2022-09-07T15:52:32.947Z,39.20
2022-09-07T15:54:59.672Z,40.00
2022-09-07T16:00:14.417Z,39.70
2022-09-07T16:05:31.187Z,39.80
2022-09-07T16:10:53.466Z,39.80
2022-09-07T16:13:20.871Z,39.00
2022-09-07T16:15:48.858Z,39.20
2022-09-07T16:18:17.964Z,39.60
2022-09-07T16:20:45.672Z,39.10
2022-09-07T16:23:15.217Z,39.20
2022-09-07T16:25:43.103Z,40.00
2022-09-07T16:28:10.195Z,39.80
2022-09-07T16:30:40.551Z,39.80
2022-09-07T16:33:07.902Z,39.60
2022-09-07T16:35:34.840Z,39.60
2022-09-07T16:40:50.755Z,39.50
2022-09-07T16:43:17.663Z,40.50
2022-09-07T16:48:32.884Z,39.90
2022-09-07T16:51:02.550Z,39.70
2022-09-07T16:53:31.760Z,40.00
2022-09-07T16:56:09.569Z,40.60
2022-09-07T16:58:38.383Z,40.80
2022-09-07T17:01:06.759Z,41.10
2022-09-07T17:03:34.148Z,41.70
2022-09-07T17:06:01.401Z,42.00
2022-09-07T17:08:28.463Z,42.00
2022-09-07T17:11:00.252Z,43.70
2022-09-07T17:13:27.345Z,44.00
2022-09-07T17:15:54.163Z,41.70
2022-09-07T17:19:28.880Z,44.00
2022-09-07T17:21:07.895Z,43.80
2022-09-07T17:23:44.531Z,44.70
2022-09-07T17:26:19.494Z,43.70
2022-09-07T17:28:49.911Z,44.00
2022-09-07T17:34:13.370Z,44.20
2022-09-07T17:36:40.620Z,43.50
2022-09-07T17:39:16.823Z,43.80
2022-09-07T17:41:45.278Z,44.70
2022-09-07T17:44:12.410Z,44.30
2022-09-07T17:46:39.594Z,44.80
2022-09-07T17:49:10.144Z,45.20
2022-09-07T17:51:37.035Z,45.60
2022-09-07T17:54:10.253Z,46.40
2022-09-07T17:56:38.695Z,46.20
2022-09-07T18:01:54.161Z,47.00
2022-09-07T18:04:21.620Z,47.20
2022-09-07T18:06:48.390Z,47.50
2022-09-07T18:09:15.275Z,47.60
2022-09-07T18:11:45.543Z,47.70
2022-09-07T18:14:14.397Z,47.40
2022-09-07T18:16:41.944Z,47.70
2022-09-07T18:19:08.809Z,48.00
2022-09-07T18:21:37.315Z,48.00
2022-09-07T18:24:07.595Z,48.50
2022-09-07T18:26:38.293Z,48.50
2022-09-07T18:29:10.452Z,48.90
2022-09-07T18:31:45.946Z,49.60
2022-09-07T18:34:12.860Z,50.00
2022-09-07T18:36:43.711Z,50.10
2022-09-07T18:39:10.793Z,50.20
2022-09-07T18:41:40.849Z,50.30
2022-09-07T18:45:27.331Z,50.50
2022-09-07T18:46:54.841Z,50.80
2022-09-07T18:49:21.553Z,50.60
2022-09-07T18:54:34.913Z,51.30
2022-09-07T18:57:01.647Z,51.50
2022-09-07T18:59:29.791Z,51.60
2022-09-07T19:02:01.520Z,51.70
2022-09-07T19:05:49.519Z,51.70
2022-09-07T19:07:17.012Z,51.80
2022-09-07T19:09:43.664Z,52.00
2022-09-07T19:12:10.439Z,52.30
2022-09-07T19:14:37.212Z,52.40
2022-09-07T19:17:03.976Z,52.30
2022-09-07T19:19:30.864Z,52.40
2022-09-07T19:21:58.194Z,52.40
2022-09-07T19:24:25.697Z,52.50
2022-09-07T19:26:55.728Z,52.70
2022-09-07T19:29:25.130Z,52.80
2022-09-07T19:32:06.575Z,52.70
2022-09-07T19:34:38.945Z,52.60
2022-09-07T19:37:07.386Z,53.00
2022-09-07T19:39:34.401Z,53.10
2022-09-07T19:42:03.950Z,52.90
2022-09-07T19:44:31.039Z,53.00
2022-09-07T19:46:57.898Z,53.20
2022-09-07T19:49:24.634Z,53.40
2022-09-07T19:51:51.942Z,53.50
2022-09-07T19:54:19.099Z,53.30
2022-09-07T19:56:45.992Z,53.20
2022-09-07T19:59:13.217Z,53.40
2022-09-07T20:01:40.603Z,53.60
2022-09-07T20:04:13.795Z,53.60
2022-09-07T20:06:42.857Z,53.60
2022-09-07T20:09:10.445Z,53.80
2022-09-07T20:11:37.210Z,53.90
2022-09-07T20:14:04.128Z,54.10
2022-09-07T20:16:33.781Z,54.30
2022-09-07T20:19:00.512Z,54.60
2022-09-07T20:21:27.236Z,54.60
2022-09-07T20:23:53.981Z,54.60
2022-09-07T20:26:21.747Z,54.90
2022-09-07T20:29:05.852Z,55.00
2022-09-07T20:31:41.659Z,55.20
2022-09-07T20:34:09.551Z,55.20
2022-09-07T20:36:36.631Z,55.50
2022-09-07T20:39:04.388Z,55.50
2022-09-07T20:41:33.853Z,55.50
2022-09-07T20:44:03.341Z,55.70
2022-09-07T20:46:30.823Z,56.40
2022-09-07T20:48:58.172Z,56.30
2022-09-07T20:51:25.065Z,56.20
2022-09-07T20:53:51.806Z,56.10
2022-09-07T20:56:23.495Z,56.20
2022-09-07T20:58:57.853Z,56.10
2022-09-07T21:01:24.961Z,56.00
2022-09-07T21:03:54.327Z,56.00
2022-09-07T21:06:22.293Z,56.20
2022-09-07T21:08:50.528Z,56.10
2022-09-07T21:11:20.612Z,56.30
2022-09-07T21:13:47.797Z,56.30
2022-09-07T21:16:16.176Z,56.00
2022-09-07T21:18:44.271Z,55.60
2022-09-07T21:21:20.389Z,55.70
2022-09-07T21:23:48.042Z,56.00
2022-09-07T21:26:14.825Z,56.20
2022-09-07T21:28:41.521Z,56.40
2022-09-07T21:31:09.213Z,56.30
2022-09-07T21:33:37.541Z,56.10
2022-09-07T21:36:12.499Z,56.30
2022-09-07T21:38:40.975Z,56.60
2022-09-07T21:41:13.703Z,56.70
2022-09-07T21:43:40.836Z,56.70
2022-09-07T21:46:16.604Z,56.40
2022-09-07T21:48:45.405Z,56.20
2022-09-07T21:51:13.457Z,56.00
2022-09-07T21:53:40.656Z,56.00
2022-09-07T21:56:12.640Z,55.90
2022-09-07T21:58:40.022Z,56.10
2022-09-07T22:01:16.824Z,56.30
2022-09-07T22:03:48.524Z,56.50
2022-09-07T22:06:15.296Z,56.80
2022-09-07T22:08:42.652Z,57.00
2022-09-07T22:11:12.239Z,57.20
2022-09-07T22:13:39.359Z,57.40
2022-09-07T22:16:07.310Z,57.50
2022-09-07T22:18:34.546Z,57.50
2022-09-07T22:21:03.028Z,57.40
2022-09-07T22:23:31.708Z,57.30
2022-09-07T22:25:58.928Z,57.00
2022-09-07T22:28:26.039Z,57.00
2022-09-07T22:30:54.666Z,57.60
2022-09-07T22:33:21.637Z,57.10
2022-09-07T22:35:48.686Z,57.20
2022-09-07T22:38:15.456Z,57.30
2022-09-07T22:40:42.225Z,57.40
2022-09-07T22:43:08.941Z,57.50
2022-09-07T22:45:35.669Z,57.70
2022-09-07T22:48:02.479Z,57.70
2022-09-07T22:50:29.167Z,57.80
2022-09-07T22:52:55.848Z,57.80
2022-09-07T22:55:22.512Z,57.90
2022-09-07T22:57:49.175Z,57.90
2022-09-07T23:00:16.137Z,58.10
2022-09-07T23:02:42.967Z,57.90
2022-09-07T23:05:10.148Z,58.30
2022-09-07T23:07:36.912Z,57.00
2022-09-07T23:10:03.955Z,56.90
2022-09-07T23:12:31.201Z,56.90
2022-09-07T23:14:57.900Z,57.10
2022-09-07T23:17:24.567Z,57.40
2022-09-07T23:19:51.239Z,57.70
2022-09-07T23:22:18.085Z,57.70
2022-09-07T23:24:44.771Z,57.60
2022-09-07T23:27:11.485Z,58.20
2022-09-07T23:29:38.316Z,57.40
2022-09-07T23:32:05.052Z,57.60
2022-09-07T23:34:31.745Z,57.70
2022-09-07T23:36:58.417Z,57.70
2022-09-07T23:39:25.095Z,57.70
2022-09-07T23:41:51.780Z,57.80
2022-09-07T23:44:18.544Z,57.90
2022-09-07T23:46:45.279Z,57.90
2022-09-07T23:49:11.981Z,57.60
2022-09-07T23:51:38.821Z,57.70
2022-09-07T23:54:05.631Z,57.60
2022-09-07T23:56:32.630Z,57.50
2022-09-07T23:58:59.320Z,57.40
